This is the latest recevied weather packets stored in our database for station/object WS2Z. If no packets are shown the sender has not sent any weather packets the latest 10 day(s).
| Time | Temp. | Humidity | Pressure | Rain* | Wind** | Luminosity | Snow |
|---|---|---|---|---|---|---|---|
| 1778009341 | 31.11° C | 59% | 1014.4 hPa | 0 mm | - | 721 W/m² | - |
| 1778009039 | 31.11° C | 57% | 1014.3 hPa | 0 mm | - | 672 W/m² | - |
| 1778008736 | 31.11° C | 58% | 1014.3 hPa | 0 mm | - | 772 W/m² | - |
| 1778008435 | 31.11° C | 57% | 1014.2 hPa | 0 mm | - | 702 W/m² | - |
| 1778008132 | 31.67° C | 56% | 1014.4 hPa | 0 mm | - | 704 W/m² | - |
| 1778007827 | 31.67° C | 55% | 1014.5 hPa | 0 mm | - | 766 W/m² | - |
| 1778007522 | 30.56° C | 60% | 1014.5 hPa | 0 mm | - | 847 W/m² | - |
| 1778007220 | 30.56° C | 58% | 1014.6 hPa | 0 mm | - | 840 W/m² | - |
| 1778006916 | 30.56° C | 60% | 1014.6 hPa | 0 mm | - | 785 W/m² | - |
| 1778006613 | 31.11° C | 59% | 1014.6 hPa | 0 mm | - | 187 W/m² | - |
| 1778006310 | 31.11° C | 58% | 1014.5 hPa | 0 mm | - | 591 W/m² | - |
| 1778006006 | 31.67° C | 55% | 1014.7 hPa | 0 mm | - | 695 W/m² | - |
| 1778005703 | 31.67° C | 55% | 1014.5 hPa | 0 mm | - | 182 W/m² | - |
| 1778005400 | 32.78° C | 53% | 1014.9 hPa | 0 mm | - | 184 W/m² | - |
| 1778005097 | 32.78° C | 46% | 1014.8 hPa | 0 mm | - | 200 W/m² | - |
| 1778004794 | 32.78° C | 46% | 1014.9 hPa | 0 mm | - | 710 W/m² | - |
| 1778004491 | 32.78° C | 47% | 1014.9 hPa | 0 mm | - | 960 W/m² | - |
| 1778004187 | 32.78° C | 48% | 1015 hPa | 0 mm | - | 946 W/m² | - |
| 1778003884 | 32.78° C | 47% | 1015.2 hPa | 0 mm | - | 933 W/m² | - |
| 1778003580 | 31.67° C | 49% | 1015.2 hPa | 0 mm | - | 940 W/m² | - |
| 1778003276 | 31.67° C | 52% | 1015.1 hPa | 0 mm | - | 911 W/m² | - |
| 1778002974 | 30.56° C | 54% | 1015.1 hPa | 0 mm | - | 821 W/m² | - |
| 1778002670 | 30.56° C | 53% | 1015.1 hPa | 0 mm | - | 849 W/m² | - |
| 1778002367 | 30.56° C | 52% | 1015 hPa | 0 mm | - | 683 W/m² | - |
| 1778002063 | 30.56° C | 54% | 1015.1 hPa | 0 mm | - | 751 W/m² | - |
* Rain latest hour (hover to see other rain measurements)
** Current wind speed in m/s (hover to see current wind gust speed)